sensor_id;sensor_type;location;lat;lon;timestamp;P1;durP1;ratioP1;P2;durP2;ratioP2
61907;SDS011;47864;52.526;19.672;2023-02-26T00:00:43;11.93;;;7.35;;
61907;SDS011;47864;52.526;19.672;2023-02-26T00:02:44;15.77;;;8.90;;
61907;SDS011;47864;52.526;19.672;2023-02-26T00:04:46;13.75;;;8.15;;
61907;SDS011;47864;52.526;19.672;2023-02-26T00:06:48;14.40;;;7.97;;
61907;SDS011;47864;52.526;19.672;2023-02-26T00:08:49;13.05;;;7.55;;
61907;SDS011;47864;52.526;19.672;2023-02-26T00:10:51;11.02;;;7.72;;
61907;SDS011;47864;52.526;19.672;2023-02-26T00:12:53;14.95;;;8.23;;
61907;SDS011;47864;52.526;19.672;2023-02-26T00:14:55;15.98;;;7.35;;
61907;SDS011;47864;52.526;19.672;2023-02-26T00:17:12;36.03;;;16.90;;
61907;SDS011;47864;52.526;19.672;2023-02-26T00:19:34;16.40;;;8.15;;
61907;SDS011;47864;52.526;19.672;2023-02-26T00:21:35;17.77;;;9.45;;
61907;SDS011;47864;52.526;19.672;2023-02-26T00:23:37;13.25;;;8.25;;
61907;SDS011;47864;52.526;19.672;2023-02-26T00:25:39;15.27;;;7.43;;
61907;SDS011;47864;52.526;19.672;2023-02-26T00:27:42;19.85;;;9.95;;
61907;SDS011;47864;52.526;19.672;2023-02-26T00:29:43;12.52;;;7.50;;
61907;SDS011;47864;52.526;19.672;2023-02-26T00:31:45;38.10;;;17.00;;
61907;SDS011;47864;52.526;19.672;2023-02-26T00:33:47;21.73;;;10.45;;
61907;SDS011;47864;52.526;19.672;2023-02-26T00:35:49;13.65;;;6.93;;
61907;SDS011;47864;52.526;19.672;2023-02-26T00:38:03;11.93;;;7.03;;
61907;SDS011;47864;52.526;19.672;2023-02-26T00:40:09;10.85;;;6.97;;
61907;SDS011;47864;52.526;19.672;2023-02-26T00:42:23;17.38;;;10.05;;
61907;SDS011;47864;52.526;19.672;2023-02-26T00:44:24;12.52;;;6.93;;
61907;SDS011;47864;52.526;19.672;2023-02-26T00:46:35;11.05;;;7.07;;
61907;SDS011;47864;52.526;19.672;2023-02-26T00:50:50;12.85;;;7.03;;
61907;SDS011;47864;52.526;19.672;2023-02-26T00:55:13;12.20;;;7.13;;
61907;SDS011;47864;52.526;19.672;2023-02-26T00:57:15;14.55;;;8.77;;
61907;SDS011;47864;52.526;19.672;2023-02-26T00:59:16;17.60;;;10.60;;
61907;SDS011;47864;52.526;19.672;2023-02-26T01:01:18;18.52;;;9.88;;
61907;SDS011;47864;52.526;19.672;2023-02-26T01:03:20;15.68;;;7.88;;
61907;SDS011;47864;52.526;19.672;2023-02-26T01:05:21;16.90;;;9.43;;
61907;SDS011;47864;52.526;19.672;2023-02-26T01:07:23;14.80;;;7.60;;
61907;SDS011;47864;52.526;19.672;2023-02-26T01:11:33;16.88;;;9.20;;
61907;SDS011;47864;52.526;19.672;2023-02-26T01:13:35;17.08;;;9.75;;
61907;SDS011;47864;52.526;19.672;2023-02-26T01:15:37;19.75;;;11.40;;
61907;SDS011;47864;52.526;19.672;2023-02-26T01:17:41;13.27;;;7.70;;
61907;SDS011;47864;52.526;19.672;2023-02-26T01:21:59;14.15;;;8.43;;
61907;SDS011;47864;52.526;19.672;2023-02-26T01:24:07;14.73;;;8.35;;
61907;SDS011;47864;52.526;19.672;2023-02-26T01:26:15;21.30;;;11.57;;
61907;SDS011;47864;52.526;19.672;2023-02-26T01:28:18;14.43;;;7.82;;
61907;SDS011;47864;52.526;19.672;2023-02-26T01:30:20;11.52;;;6.28;;
61907;SDS011;47864;52.526;19.672;2023-02-26T01:32:24;14.43;;;7.47;;
61907;SDS011;47864;52.526;19.672;2023-02-26T01:34:46;12.57;;;6.80;;
61907;SDS011;47864;52.526;19.672;2023-02-26T01:37:01;16.00;;;8.53;;
61907;SDS011;47864;52.526;19.672;2023-02-26T01:39:25;22.38;;;12.15;;
61907;SDS011;47864;52.526;19.672;2023-02-26T01:41:48;15.15;;;7.53;;
61907;SDS011;47864;52.526;19.672;2023-02-26T01:44:03;15.82;;;7.80;;
61907;SDS011;47864;52.526;19.672;2023-02-26T01:48:47;19.38;;;10.07;;
61907;SDS011;47864;52.526;19.672;2023-02-26T01:50:50;18.38;;;9.25;;
61907;SDS011;47864;52.526;19.672;2023-02-26T01:55:23;17.15;;;9.20;;
61907;SDS011;47864;52.526;19.672;2023-02-26T01:57:27;11.25;;;6.40;;
61907;SDS011;47864;52.526;19.672;2023-02-26T01:59:28;9.07;;;5.95;;
61907;SDS011;47864;52.526;19.672;2023-02-26T02:01:33;11.80;;;7.18;;
61907;SDS011;47864;52.526;19.672;2023-02-26T02:03:37;9.73;;;5.70;;
61907;SDS011;47864;52.526;19.672;2023-02-26T02:05:52;9.27;;;5.47;;
61907;SDS011;47864;52.526;19.672;2023-02-26T02:08:07;9.10;;;5.63;;
61907;SDS011;47864;52.526;19.672;2023-02-26T02:10:09;8.32;;;5.05;;
61907;SDS011;47864;52.526;19.672;2023-02-26T02:30:34;9.30;;;4.63;;
61907;SDS011;47864;52.526;19.672;2023-02-26T02:38:03;7.25;;;4.65;;
61907;SDS011;47864;52.526;19.672;2023-02-26T02:40:07;11.30;;;6.18;;
61907;SDS011;47864;52.526;19.672;2023-02-26T02:44:14;23.13;;;9.88;;
61907;SDS011;47864;52.526;19.672;2023-02-26T02:46:20;16.73;;;7.75;;
61907;SDS011;47864;52.526;19.672;2023-02-26T02:48:27;9.07;;;5.30;;
61907;SDS011;47864;52.526;19.672;2023-02-26T02:50:34;9.57;;;6.18;;
61907;SDS011;47864;52.526;19.672;2023-02-26T02:52:42;8.45;;;4.82;;
61907;SDS011;47864;52.526;19.672;2023-02-26T02:55:07;7.53;;;5.40;;
61907;SDS011;47864;52.526;19.672;2023-02-26T02:57:20;11.40;;;5.85;;
61907;SDS011;47864;52.526;19.672;2023-02-26T03:01:29;12.10;;;6.95;;
61907;SDS011;47864;52.526;19.672;2023-02-26T03:03:52;10.68;;;7.05;;
61907;SDS011;47864;52.526;19.672;2023-02-26T03:05:59;7.75;;;5.15;;
61907;SDS011;47864;52.526;19.672;2023-02-26T03:08:03;13.25;;;5.80;;
61907;SDS011;47864;52.526;19.672;2023-02-26T03:10:06;9.55;;;5.43;;
61907;SDS011;47864;52.526;19.672;2023-02-26T03:12:08;7.97;;;5.05;;
61907;SDS011;47864;52.526;19.672;2023-02-26T03:14:09;9.40;;;5.32;;
61907;SDS011;47864;52.526;19.672;2023-02-26T03:21:13;10.25;;;5.60;;
61907;SDS011;47864;52.526;19.672;2023-02-26T03:23:37;10.75;;;5.45;;
61907;SDS011;47864;52.526;19.672;2023-02-26T03:28:15;9.85;;;5.57;;
61907;SDS011;47864;52.526;19.672;2023-02-26T03:30:31;8.50;;;5.78;;
61907;SDS011;47864;52.526;19.672;2023-02-26T03:32:43;10.35;;;5.30;;
61907;SDS011;47864;52.526;19.672;2023-02-26T03:34:55;9.80;;;5.70;;
61907;SDS011;47864;52.526;19.672;2023-02-26T03:37:06;10.70;;;5.68;;
61907;SDS011;47864;52.526;19.672;2023-02-26T03:39:26;9.27;;;5.50;;
61907;SDS011;47864;52.526;19.672;2023-02-26T03:41:48;10.38;;;5.05;;
61907;SDS011;47864;52.526;19.672;2023-02-26T03:43:57;10.70;;;5.75;;
61907;SDS011;47864;52.526;19.672;2023-02-26T03:46:02;9.90;;;5.97;;
61907;SDS011;47864;52.526;19.672;2023-02-26T03:48:08;7.03;;;5.07;;
61907;SDS011;47864;52.526;19.672;2023-02-26T03:52:27;10.57;;;5.72;;
61907;SDS011;47864;52.526;19.672;2023-02-26T03:54:38;9.20;;;5.15;;
61907;SDS011;47864;52.526;19.672;2023-02-26T03:56:44;8.70;;;5.20;;
61907;SDS011;47864;52.526;19.672;2023-02-26T03:58:47;7.85;;;4.95;;
61907;SDS011;47864;52.526;19.672;2023-02-26T04:00:50;10.65;;;6.28;;
61907;SDS011;47864;52.526;19.672;2023-02-26T04:02:59;7.85;;;5.28;;
61907;SDS011;47864;52.526;19.672;2023-02-26T04:07:16;9.07;;;4.18;;
61907;SDS011;47864;52.526;19.672;2023-02-26T04:09:19;9.13;;;5.18;;
61907;SDS011;47864;52.526;19.672;2023-02-26T04:11:21;6.47;;;4.65;;
61907;SDS011;47864;52.526;19.672;2023-02-26T04:13:24;9.50;;;5.60;;
61907;SDS011;47864;52.526;19.672;2023-02-26T04:15:26;15.75;;;8.02;;
61907;SDS011;47864;52.526;19.672;2023-02-26T04:17:28;12.52;;;6.70;;
61907;SDS011;47864;52.526;19.672;2023-02-26T04:19:30;8.93;;;6.00;;
61907;SDS011;47864;52.526;19.672;2023-02-26T04:21:32;8.75;;;5.28;;
61907;SDS011;47864;52.526;19.672;2023-02-26T04:23:33;9.07;;;5.70;;
61907;SDS011;47864;52.526;19.672;2023-02-26T04:25:35;12.05;;;8.48;;
61907;SDS011;47864;52.526;19.672;2023-02-26T04:27:37;9.18;;;5.45;;
61907;SDS011;47864;52.526;19.672;2023-02-26T04:29:38;12.98;;;8.00;;
61907;SDS011;47864;52.526;19.672;2023-02-26T04:31:40;8.63;;;5.45;;
61907;SDS011;47864;52.526;19.672;2023-02-26T04:33:41;8.45;;;5.35;;
61907;SDS011;47864;52.526;19.672;2023-02-26T04:35:43;10.07;;;5.20;;
61907;SDS011;47864;52.526;19.672;2023-02-26T04:37:45;6.85;;;4.63;;
61907;SDS011;47864;52.526;19.672;2023-02-26T04:39:46;7.35;;;4.93;;
61907;SDS011;47864;52.526;19.672;2023-02-26T04:41:48;6.25;;;4.55;;
61907;SDS011;47864;52.526;19.672;2023-02-26T04:43:50;4.70;;;3.38;;
61907;SDS011;47864;52.526;19.672;2023-02-26T04:45:51;5.63;;;4.40;;
61907;SDS011;47864;52.526;19.672;2023-02-26T04:47:53;3.80;;;3.00;;
61907;SDS011;47864;52.526;19.672;2023-02-26T04:49:55;6.78;;;4.47;;
61907;SDS011;47864;52.526;19.672;2023-02-26T04:51:56;5.57;;;4.07;;
61907;SDS011;47864;52.526;19.672;2023-02-26T04:53:58;6.57;;;4.35;;
61907;SDS011;47864;52.526;19.672;2023-02-26T04:55:59;22.85;;;14.18;;
61907;SDS011;47864;52.526;19.672;2023-02-26T04:58:02;29.08;;;18.80;;
61907;SDS011;47864;52.526;19.672;2023-02-26T05:00:04;25.05;;;15.65;;
61907;SDS011;47864;52.526;19.672;2023-02-26T05:02:05;18.02;;;12.88;;
61907;SDS011;47864;52.526;19.672;2023-02-26T05:04:07;11.05;;;7.63;;
61907;SDS011;47864;52.526;19.672;2023-02-26T05:06:09;21.20;;;12.80;;
61907;SDS011;47864;52.526;19.672;2023-02-26T05:08:11;16.83;;;9.18;;
61907;SDS011;47864;52.526;19.672;2023-02-26T05:10:12;11.70;;;8.50;;
61907;SDS011;47864;52.526;19.672;2023-02-26T05:12:14;5.57;;;4.38;;
61907;SDS011;47864;52.526;19.672;2023-02-26T05:14:16;7.55;;;5.63;;
61907;SDS011;47864;52.526;19.672;2023-02-26T05:16:17;20.52;;;13.68;;
61907;SDS011;47864;52.526;19.672;2023-02-26T05:18:19;15.27;;;9.20;;
61907;SDS011;47864;52.526;19.672;2023-02-26T05:20:20;10.40;;;6.07;;
61907;SDS011;47864;52.526;19.672;2023-02-26T05:22:22;9.95;;;6.28;;
61907;SDS011;47864;52.526;19.672;2023-02-26T05:24:23;9.05;;;5.88;;
61907;SDS011;47864;52.526;19.672;2023-02-26T05:26:25;13.20;;;7.53;;
61907;SDS011;47864;52.526;19.672;2023-02-26T05:28:27;7.95;;;4.75;;
61907;SDS011;47864;52.526;19.672;2023-02-26T05:30:28;7.13;;;4.30;;
61907;SDS011;47864;52.526;19.672;2023-02-26T05:32:30;16.48;;;8.38;;
61907;SDS011;47864;52.526;19.672;2023-02-26T05:34:31;9.23;;;6.07;;
61907;SDS011;47864;52.526;19.672;2023-02-26T05:36:33;4.18;;;3.22;;
61907;SDS011;47864;52.526;19.672;2023-02-26T05:38:34;6.10;;;4.70;;
61907;SDS011;47864;52.526;19.672;2023-02-26T05:40:36;5.97;;;4.40;;
61907;SDS011;47864;52.526;19.672;2023-02-26T05:42:38;6.60;;;4.55;;
61907;SDS011;47864;52.526;19.672;2023-02-26T05:44:40;8.20;;;4.63;;
61907;SDS011;47864;52.526;19.672;2023-02-26T05:46:42;6.28;;;5.10;;
61907;SDS011;47864;52.526;19.672;2023-02-26T05:48:43;14.38;;;9.25;;
61907;SDS011;47864;52.526;19.672;2023-02-26T05:50:47;7.18;;;4.90;;
61907;SDS011;47864;52.526;19.672;2023-02-26T05:52:50;8.93;;;5.13;;
61907;SDS011;47864;52.526;19.672;2023-02-26T05:54:51;8.07;;;4.80;;
61907;SDS011;47864;52.526;19.672;2023-02-26T05:56:53;9.13;;;5.35;;
61907;SDS011;47864;52.526;19.672;2023-02-26T05:58:54;13.48;;;7.03;;
61907;SDS011;47864;52.526;19.672;2023-02-26T06:00:57;11.68;;;6.10;;
61907;SDS011;47864;52.526;19.672;2023-02-26T06:02:59;10.55;;;6.45;;
61907;SDS011;47864;52.526;19.672;2023-02-26T06:05:00;9.70;;;5.68;;
61907;SDS011;47864;52.526;19.672;2023-02-26T06:07:02;13.65;;;5.55;;
61907;SDS011;47864;52.526;19.672;2023-02-26T06:09:03;12.43;;;6.55;;
61907;SDS011;47864;52.526;19.672;2023-02-26T06:11:05;12.65;;;6.93;;
61907;SDS011;47864;52.526;19.672;2023-02-26T06:13:06;11.85;;;6.28;;
61907;SDS011;47864;52.526;19.672;2023-02-26T06:15:08;8.93;;;5.80;;
61907;SDS011;47864;52.526;19.672;2023-02-26T06:17:10;11.50;;;6.70;;
61907;SDS011;47864;52.526;19.672;2023-02-26T06:19:11;15.35;;;8.90;;
61907;SDS011;47864;52.526;19.672;2023-02-26T06:21:13;17.00;;;9.88;;
61907;SDS011;47864;52.526;19.672;2023-02-26T06:23:15;17.23;;;10.23;;
61907;SDS011;47864;52.526;19.672;2023-02-26T06:25:16;12.20;;;6.68;;
61907;SDS011;47864;52.526;19.672;2023-02-26T06:27:18;12.82;;;6.70;;
61907;SDS011;47864;52.526;19.672;2023-02-26T06:29:19;17.75;;;10.70;;
61907;SDS011;47864;52.526;19.672;2023-02-26T06:31:21;33.40;;;22.17;;
61907;SDS011;47864;52.526;19.672;2023-02-26T06:33:22;22.88;;;13.23;;
61907;SDS011;47864;52.526;19.672;2023-02-26T06:35:24;23.02;;;12.63;;
61907;SDS011;47864;52.526;19.672;2023-02-26T06:37:26;103.13;;;71.22;;
61907;SDS011;47864;52.526;19.672;2023-02-26T06:39:27;12.68;;;8.10;;
61907;SDS011;47864;52.526;19.672;2023-02-26T06:41:29;20.52;;;11.40;;
61907;SDS011;47864;52.526;19.672;2023-02-26T06:43:30;13.63;;;9.27;;
61907;SDS011;47864;52.526;19.672;2023-02-26T06:45:32;21.83;;;11.57;;
61907;SDS011;47864;52.526;19.672;2023-02-26T06:47:33;18.67;;;10.13;;
61907;SDS011;47864;52.526;19.672;2023-02-26T06:49:35;20.08;;;11.68;;
61907;SDS011;47864;52.526;19.672;2023-02-26T06:51:36;26.00;;;14.57;;
61907;SDS011;47864;52.526;19.672;2023-02-26T06:53:38;44.33;;;20.55;;
61907;SDS011;47864;52.526;19.672;2023-02-26T06:55:43;23.08;;;11.40;;
61907;SDS011;47864;52.526;19.672;2023-02-26T06:57:46;23.65;;;11.57;;
61907;SDS011;47864;52.526;19.672;2023-02-26T06:59:48;21.90;;;12.13;;
61907;SDS011;47864;52.526;19.672;2023-02-26T07:01:49;24.88;;;13.75;;
61907;SDS011;47864;52.526;19.672;2023-02-26T07:03:51;25.77;;;16.45;;
61907;SDS011;47864;52.526;19.672;2023-02-26T07:05:52;27.65;;;14.18;;
61907;SDS011;47864;52.526;19.672;2023-02-26T07:07:54;17.42;;;13.25;;
61907;SDS011;47864;52.526;19.672;2023-02-26T07:09:55;12.57;;;6.65;;
61907;SDS011;47864;52.526;19.672;2023-02-26T07:11:57;21.95;;;12.55;;
61907;SDS011;47864;52.526;19.672;2023-02-26T07:13:58;17.45;;;10.90;;
61907;SDS011;47864;52.526;19.672;2023-02-26T07:16:00;14.20;;;8.98;;
61907;SDS011;47864;52.526;19.672;2023-02-26T07:18:01;9.63;;;7.57;;
61907;SDS011;47864;52.526;19.672;2023-02-26T07:20:03;10.32;;;7.00;;
61907;SDS011;47864;52.526;19.672;2023-02-26T07:22:05;8.98;;;5.78;;
61907;SDS011;47864;52.526;19.672;2023-02-26T07:24:07;12.45;;;7.03;;
61907;SDS011;47864;52.526;19.672;2023-02-26T07:26:08;13.95;;;7.78;;
61907;SDS011;47864;52.526;19.672;2023-02-26T07:28:10;18.50;;;10.25;;
61907;SDS011;47864;52.526;19.672;2023-02-26T07:30:11;18.70;;;10.43;;
61907;SDS011;47864;52.526;19.672;2023-02-26T07:32:13;21.85;;;14.63;;
61907;SDS011;47864;52.526;19.672;2023-02-26T07:34:15;17.80;;;10.60;;
61907;SDS011;47864;52.526;19.672;2023-02-26T07:36:16;21.15;;;11.57;;
61907;SDS011;47864;52.526;19.672;2023-02-26T07:38:18;18.08;;;9.13;;
61907;SDS011;47864;52.526;19.672;2023-02-26T07:40:20;15.82;;;9.27;;
61907;SDS011;47864;52.526;19.672;2023-02-26T07:42:21;13.98;;;8.32;;
61907;SDS011;47864;52.526;19.672;2023-02-26T07:44:23;11.80;;;6.18;;
61907;SDS011;47864;52.526;19.672;2023-02-26T07:46:24;17.38;;;13.50;;
61907;SDS011;47864;52.526;19.672;2023-02-26T07:48:26;29.42;;;18.75;;
61907;SDS011;47864;52.526;19.672;2023-02-26T07:50:28;57.33;;;28.17;;
61907;SDS011;47864;52.526;19.672;2023-02-26T07:52:30;13.30;;;9.02;;
61907;SDS011;47864;52.526;19.672;2023-02-26T07:54:31;12.10;;;6.35;;
61907;SDS011;47864;52.526;19.672;2023-02-26T07:56:33;19.17;;;9.30;;
61907;SDS011;47864;52.526;19.672;2023-02-26T07:58:34;12.30;;;8.52;;
61907;SDS011;47864;52.526;19.672;2023-02-26T08:00:36;19.65;;;12.20;;
61907;SDS011;47864;52.526;19.672;2023-02-26T08:02:38;25.08;;;14.20;;
61907;SDS011;47864;52.526;19.672;2023-02-26T08:04:39;16.63;;;9.20;;
61907;SDS011;47864;52.526;19.672;2023-02-26T08:06:41;32.50;;;18.33;;
61907;SDS011;47864;52.526;19.672;2023-02-26T08:08:43;42.22;;;19.20;;
61907;SDS011;47864;52.526;19.672;2023-02-26T08:10:44;93.35;;;55.58;;
61907;SDS011;47864;52.526;19.672;2023-02-26T08:12:46;15.15;;;8.80;;
61907;SDS011;47864;52.526;19.672;2023-02-26T08:14:47;27.88;;;19.50;;
61907;SDS011;47864;52.526;19.672;2023-02-26T08:16:49;16.27;;;9.20;;
61907;SDS011;47864;52.526;19.672;2023-02-26T08:18:50;20.05;;;12.20;;
61907;SDS011;47864;52.526;19.672;2023-02-26T08:20:52;11.57;;;8.10;;
61907;SDS011;47864;52.526;19.672;2023-02-26T08:22:53;9.57;;;6.32;;
61907;SDS011;47864;52.526;19.672;2023-02-26T08:24:55;16.33;;;9.43;;
61907;SDS011;47864;52.526;19.672;2023-02-26T08:26:56;22.48;;;11.18;;
61907;SDS011;47864;52.526;19.672;2023-02-26T08:28:58;24.55;;;12.10;;
61907;SDS011;47864;52.526;19.672;2023-02-26T08:31:00;13.40;;;8.27;;
61907;SDS011;47864;52.526;19.672;2023-02-26T08:33:02;14.60;;;8.77;;
61907;SDS011;47864;52.526;19.672;2023-02-26T08:35:04;9.38;;;6.22;;
61907;SDS011;47864;52.526;19.672;2023-02-26T08:37:06;19.50;;;10.88;;
61907;SDS011;47864;52.526;19.672;2023-02-26T08:39:07;17.25;;;8.63;;
61907;SDS011;47864;52.526;19.672;2023-02-26T08:41:09;19.77;;;11.55;;
61907;SDS011;47864;52.526;19.672;2023-02-26T08:43:11;14.35;;;7.53;;
61907;SDS011;47864;52.526;19.672;2023-02-26T08:45:12;12.65;;;7.93;;
61907;SDS011;47864;52.526;19.672;2023-02-26T08:47:14;15.23;;;9.07;;
61907;SDS011;47864;52.526;19.672;2023-02-26T08:49:28;15.32;;;10.45;;
61907;SDS011;47864;52.526;19.672;2023-02-26T08:51:29;13.88;;;9.13;;
61907;SDS011;47864;52.526;19.672;2023-02-26T08:53:31;12.95;;;8.30;;
61907;SDS011;47864;52.526;19.672;2023-02-26T08:55:32;12.40;;;7.30;;
61907;SDS011;47864;52.526;19.672;2023-02-26T08:57:34;13.95;;;8.55;;
61907;SDS011;47864;52.526;19.672;2023-02-26T08:59:35;15.05;;;11.00;;
61907;SDS011;47864;52.526;19.672;2023-02-26T09:01:37;17.88;;;11.93;;
61907;SDS011;47864;52.526;19.672;2023-02-26T09:03:39;7.53;;;6.45;;
61907;SDS011;47864;52.526;19.672;2023-02-26T09:05:40;50.45;;;29.45;;
61907;SDS011;47864;52.526;19.672;2023-02-26T09:07:42;19.00;;;12.82;;
61907;SDS011;47864;52.526;19.672;2023-02-26T09:09:44;12.85;;;8.48;;
61907;SDS011;47864;52.526;19.672;2023-02-26T09:11:46;79.95;;;38.60;;
61907;SDS011;47864;52.526;19.672;2023-02-26T09:13:48;24.63;;;13.80;;
61907;SDS011;47864;52.526;19.672;2023-02-26T09:15:49;96.95;;;45.83;;
61907;SDS011;47864;52.526;19.672;2023-02-26T09:17:51;70.85;;;36.60;;
61907;SDS011;47864;52.526;19.672;2023-02-26T09:19:52;69.05;;;40.15;;
61907;SDS011;47864;52.526;19.672;2023-02-26T09:21:55;23.40;;;14.93;;
61907;SDS011;47864;52.526;19.672;2023-02-26T09:23:56;27.58;;;15.90;;
61907;SDS011;47864;52.526;19.672;2023-02-26T09:25:58;97.00;;;41.53;;
61907;SDS011;47864;52.526;19.672;2023-02-26T09:27:59;24.42;;;14.60;;
61907;SDS011;47864;52.526;19.672;2023-02-26T09:30:02;10.48;;;9.02;;
61907;SDS011;47864;52.526;19.672;2023-02-26T09:32:04;32.65;;;20.23;;
61907;SDS011;47864;52.526;19.672;2023-02-26T09:34:06;38.60;;;34.20;;
61907;SDS011;47864;52.526;19.672;2023-02-26T09:38:11;49.38;;;25.88;;
61907;SDS011;47864;52.526;19.672;2023-02-26T09:40:20;42.10;;;24.55;;
61907;SDS011;47864;52.526;19.672;2023-02-26T09:44:45;42.10;;;29.27;;
61907;SDS011;47864;52.526;19.672;2023-02-26T09:46:56;70.70;;;39.10;;
61907;SDS011;47864;52.526;19.672;2023-02-26T09:51:39;26.05;;;15.30;;
61907;SDS011;47864;52.526;19.672;2023-02-26T09:53:42;19.40;;;14.35;;
61907;SDS011;47864;52.526;19.672;2023-02-26T09:55:44;178.23;;;91.13;;
61907;SDS011;47864;52.526;19.672;2023-02-26T09:57:48;18.02;;;11.90;;
61907;SDS011;47864;52.526;19.672;2023-02-26T09:59:55;82.40;;;29.42;;
61907;SDS011;47864;52.526;19.672;2023-02-26T10:02:03;191.23;;;67.90;;
61907;SDS011;47864;52.526;19.672;2023-02-26T10:04:18;206.85;;;73.97;;
61907;SDS011;47864;52.526;19.672;2023-02-26T10:08:38;176.13;;;68.90;;
61907;SDS011;47864;52.526;19.672;2023-02-26T10:11:03;396.73;;;153.15;;
61907;SDS011;47864;52.526;19.672;2023-02-26T10:13:18;206.88;;;82.35;;
61907;SDS011;47864;52.526;19.672;2023-02-26T10:15:26;120.65;;;49.72;;
61907;SDS011;47864;52.526;19.672;2023-02-26T10:19:36;121.50;;;65.90;;
61907;SDS011;47864;52.526;19.672;2023-02-26T10:24:06;39.97;;;19.98;;
61907;SDS011;47864;52.526;19.672;2023-02-26T10:30:57;13.52;;;9.07;;
61907;SDS011;47864;52.526;19.672;2023-02-26T10:33:06;24.05;;;13.50;;
61907;SDS011;47864;52.526;19.672;2023-02-26T10:35:16;34.03;;;16.35;;
61907;SDS011;47864;52.526;19.672;2023-02-26T10:37:20;13.18;;;6.32;;
61907;SDS011;47864;52.526;19.672;2023-02-26T10:41:55;113.35;;;39.70;;
61907;SDS011;47864;52.526;19.672;2023-02-26T10:44:10;56.80;;;23.45;;
61907;SDS011;47864;52.526;19.672;2023-02-26T10:49:35;77.78;;;30.15;;
61907;SDS011;47864;52.526;19.672;2023-02-26T10:53:36;23.08;;;13.05;;
61907;SDS011;47864;52.526;19.672;2023-02-26T10:55:42;25.58;;;15.13;;
61907;SDS011;47864;52.526;19.672;2023-02-26T10:58:05;43.30;;;22.63;;
61907;SDS011;47864;52.526;19.672;2023-02-26T11:00:18;30.20;;;15.57;;
61907;SDS011;47864;52.526;19.672;2023-02-26T11:02:40;19.27;;;9.73;;
61907;SDS011;47864;52.526;19.672;2023-02-26T11:04:44;29.73;;;14.37;;
61907;SDS011;47864;52.526;19.672;2023-02-26T11:06:55;19.95;;;8.77;;
61907;SDS011;47864;52.526;19.672;2023-02-26T11:08:59;10.13;;;5.25;;
61907;SDS011;47864;52.526;19.672;2023-02-26T11:11:03;42.90;;;16.00;;
61907;SDS011;47864;52.526;19.672;2023-02-26T11:13:05;39.92;;;17.60;;
61907;SDS011;47864;52.526;19.672;2023-02-26T11:15:11;40.30;;;21.10;;
61907;SDS011;47864;52.526;19.672;2023-02-26T11:19:25;18.52;;;9.10;;
61907;SDS011;47864;52.526;19.672;2023-02-26T11:21:34;24.05;;;13.10;;
61907;SDS011;47864;52.526;19.672;2023-02-26T11:23:39;27.30;;;12.77;;
61907;SDS011;47864;52.526;19.672;2023-02-26T11:25:43;22.27;;;12.13;;
61907;SDS011;47864;52.526;19.672;2023-02-26T11:27:46;20.67;;;9.85;;
61907;SDS011;47864;52.526;19.672;2023-02-26T11:29:55;19.58;;;9.80;;
61907;SDS011;47864;52.526;19.672;2023-02-26T11:31:58;36.67;;;16.38;;
61907;SDS011;47864;52.526;19.672;2023-02-26T11:34:04;24.48;;;12.65;;
61907;SDS011;47864;52.526;19.672;2023-02-26T11:36:14;29.10;;;13.43;;
61907;SDS011;47864;52.526;19.672;2023-02-26T11:38:22;25.92;;;12.55;;
61907;SDS011;47864;52.526;19.672;2023-02-26T11:40:34;24.05;;;10.20;;
61907;SDS011;47864;52.526;19.672;2023-02-26T11:42:42;24.33;;;9.75;;
61907;SDS011;47864;52.526;19.672;2023-02-26T11:44:48;17.30;;;8.18;;
61907;SDS011;47864;52.526;19.672;2023-02-26T11:46:55;18.08;;;10.95;;
61907;SDS011;47864;52.526;19.672;2023-02-26T11:48:59;13.07;;;6.40;;
61907;SDS011;47864;52.526;19.672;2023-02-26T11:51:01;17.83;;;8.63;;
61907;SDS011;47864;52.526;19.672;2023-02-26T11:53:06;25.92;;;11.75;;
61907;SDS011;47864;52.526;19.672;2023-02-26T11:55:20;20.25;;;8.95;;
61907;SDS011;47864;52.526;19.672;2023-02-26T11:57:28;13.95;;;5.10;;
61907;SDS011;47864;52.526;19.672;2023-02-26T11:59:31;13.55;;;6.00;;
61907;SDS011;47864;52.526;19.672;2023-02-26T12:01:34;14.05;;;8.70;;
61907;SDS011;47864;52.526;19.672;2023-02-26T12:03:37;18.98;;;8.68;;
61907;SDS011;47864;52.526;19.672;2023-02-26T12:05:43;12.38;;;6.97;;
61907;SDS011;47864;52.526;19.672;2023-02-26T12:07:44;23.05;;;11.23;;
61907;SDS011;47864;52.526;19.672;2023-02-26T12:09:46;77.20;;;29.23;;
61907;SDS011;47864;52.526;19.672;2023-02-26T12:16:23;20.02;;;9.90;;
61907;SDS011;47864;52.526;19.672;2023-02-26T12:18:36;25.73;;;10.65;;
61907;SDS011;47864;52.526;19.672;2023-02-26T12:32:50;11.15;;;5.45;;
61907;SDS011;47864;52.526;19.672;2023-02-26T12:44:01;28.35;;;13.55;;
61907;SDS011;47864;52.526;19.672;2023-02-26T12:50:58;30.58;;;13.60;;
61907;SDS011;47864;52.526;19.672;2023-02-26T12:53:14;15.93;;;8.23;;
61907;SDS011;47864;52.526;19.672;2023-02-26T12:58:01;24.90;;;12.98;;
61907;SDS011;47864;52.526;19.672;2023-02-26T13:00:34;18.38;;;8.85;;
61907;SDS011;47864;52.526;19.672;2023-02-26T13:12:16;23.45;;;12.25;;
61907;SDS011;47864;52.526;19.672;2023-02-26T13:14:40;17.45;;;7.40;;
61907;SDS011;47864;52.526;19.672;2023-02-26T13:21:58;13.40;;;7.03;;
61907;SDS011;47864;52.526;19.672;2023-02-26T13:24:39;22.75;;;11.73;;
61907;SDS011;47864;52.526;19.672;2023-02-26T13:26:38;13.82;;;6.35;;
61907;SDS011;47864;52.526;19.672;2023-02-26T13:28:46;11.83;;;6.30;;
61907;SDS011;47864;52.526;19.672;2023-02-26T13:30:53;31.73;;;14.73;;
61907;SDS011;47864;52.526;19.672;2023-02-26T13:32:58;26.63;;;11.38;;
61907;SDS011;47864;52.526;19.672;2023-02-26T13:35:03;46.97;;;17.10;;
61907;SDS011;47864;52.526;19.672;2023-02-26T13:37:10;46.13;;;16.08;;
61907;SDS011;47864;52.526;19.672;2023-02-26T13:49:28;33.45;;;12.55;;
61907;SDS011;47864;52.526;19.672;2023-02-26T13:51:39;31.77;;;12.63;;
61907;SDS011;47864;52.526;19.672;2023-02-26T13:53:54;22.73;;;9.02;;
61907;SDS011;47864;52.526;19.672;2023-02-26T13:58:29;19.67;;;11.60;;
61907;SDS011;47864;52.526;19.672;2023-02-26T14:00:37;14.20;;;7.72;;
61907;SDS011;47864;52.526;19.672;2023-02-26T14:02:55;15.43;;;8.77;;
61907;SDS011;47864;52.526;19.672;2023-02-26T14:07:45;28.98;;;15.82;;
61907;SDS011;47864;52.526;19.672;2023-02-26T14:09:59;21.17;;;11.03;;
61907;SDS011;47864;52.526;19.672;2023-02-26T14:12:03;17.50;;;9.32;;
61907;SDS011;47864;52.526;19.672;2023-02-26T14:14:15;19.85;;;9.60;;
61907;SDS011;47864;52.526;19.672;2023-02-26T14:16:23;13.82;;;6.45;;
61907;SDS011;47864;52.526;19.672;2023-02-26T14:20:49;13.00;;;5.70;;
61907;SDS011;47864;52.526;19.672;2023-02-26T14:23:17;22.63;;;14.88;;
61907;SDS011;47864;52.526;19.672;2023-02-26T14:25:34;8.25;;;4.68;;
61907;SDS011;47864;52.526;19.672;2023-02-26T14:27:39;77.28;;;30.40;;
61907;SDS011;47864;52.526;19.672;2023-02-26T14:29:43;52.30;;;20.20;;
61907;SDS011;47864;52.526;19.672;2023-02-26T14:32:03;22.08;;;12.07;;
61907;SDS011;47864;52.526;19.672;2023-02-26T14:34:14;12.48;;;6.45;;
61907;SDS011;47864;52.526;19.672;2023-02-26T14:38:40;16.85;;;7.95;;